sensor_id;sensor_type;location;lat;lon;timestamp;P1;durP1;ratioP1;P2;durP2;ratioP2
38220;SDS011;24023;51.280;7.148;2022-12-05T00:00:12;18.2;;;14.1;;
38220;SDS011;24023;51.280;7.148;2022-12-05T00:05:09;18.2;;;14.1;;
38220;SDS011;24023;51.280;7.148;2022-12-05T00:10:09;19.1;;;14.2;;
38220;SDS011;24023;51.280;7.148;2022-12-05T00:15:11;17.4;;;13.2;;
38220;SDS011;24023;51.280;7.148;2022-12-05T00:20:09;17.4;;;13.2;;
38220;SDS011;24023;51.280;7.148;2022-12-05T00:25:07;17.4;;;13.2;;
38220;SDS011;24023;51.280;7.148;2022-12-05T00:30:10;16.7;;;13.3;;
38220;SDS011;24023;51.280;7.148;2022-12-05T00:35:07;16.7;;;13.3;;
38220;SDS011;24023;51.280;7.148;2022-12-05T00:40:09;17.7;;;13.7;;
38220;SDS011;24023;51.280;7.148;2022-12-05T00:45:10;17.7;;;13.7;;
38220;SDS011;24023;51.280;7.148;2022-12-05T00:50:09;17.7;;;13.7;;
38220;SDS011;24023;51.280;7.148;2022-12-05T00:55:07;18.5;;;13.8;;
38220;SDS011;24023;51.280;7.148;2022-12-05T01:00:12;18.5;;;13.8;;
38220;SDS011;24023;51.280;7.148;2022-12-05T01:05:07;17.8;;;13.5;;
38220;SDS011;24023;51.280;7.148;2022-12-05T01:10:09;17.8;;;13.5;;
38220;SDS011;24023;51.280;7.148;2022-12-05T01:15:08;17.8;;;13.5;;
38220;SDS011;24023;51.280;7.148;2022-12-05T01:20:09;16.4;;;13.4;;
38220;SDS011;24023;51.280;7.148;2022-12-05T01:25:07;18.1;;;13.6;;
38220;SDS011;24023;51.280;7.148;2022-12-05T01:30:11;18.1;;;13.6;;
38220;SDS011;24023;51.280;7.148;2022-12-05T01:35:07;18.1;;;13.6;;
38220;SDS011;24023;51.280;7.148;2022-12-05T01:40:09;18.5;;;13.8;;
38220;SDS011;24023;51.280;7.148;2022-12-05T01:45:12;18.5;;;13.8;;
38220;SDS011;24023;51.280;7.148;2022-12-05T01:50:09;18.8;;;13.9;;
38220;SDS011;24023;51.280;7.148;2022-12-05T01:55:08;18.8;;;13.9;;
38220;SDS011;24023;51.280;7.148;2022-12-05T02:00:13;18.8;;;13.9;;
38220;SDS011;24023;51.280;7.148;2022-12-05T02:05:08;18.2;;;13.5;;
38220;SDS011;24023;51.280;7.148;2022-12-05T02:10:09;18.2;;;13.5;;
38220;SDS011;24023;51.280;7.148;2022-12-05T02:15:13;17.1;;;13.8;;
38220;SDS011;24023;51.280;7.148;2022-12-05T02:20:12;17.1;;;13.8;;
38220;SDS011;24023;51.280;7.148;2022-12-05T02:25:11;17.1;;;13.8;;
38220;SDS011;24023;51.280;7.148;2022-12-05T02:30:11;17.4;;;13.6;;
38220;SDS011;24023;51.280;7.148;2022-12-05T02:35:10;17.4;;;13.6;;
38220;SDS011;24023;51.280;7.148;2022-12-05T02:40:09;17.8;;;14.5;;
38220;SDS011;24023;51.280;7.148;2022-12-05T02:45:11;17.8;;;14.5;;
38220;SDS011;24023;51.280;7.148;2022-12-05T02:50:09;17.0;;;13.8;;
38220;SDS011;24023;51.280;7.148;2022-12-05T02:55:07;18.9;;;13.5;;
38220;SDS011;24023;51.280;7.148;2022-12-05T03:00:12;18.9;;;13.5;;
38220;SDS011;24023;51.280;7.148;2022-12-05T03:05:08;16.5;;;12.9;;
38220;SDS011;24023;51.280;7.148;2022-12-05T03:10:08;16.5;;;12.9;;
38220;SDS011;24023;51.280;7.148;2022-12-05T03:15:10;14.5;;;11.7;;
38220;SDS011;24023;51.280;7.148;2022-12-05T03:20:10;14.5;;;11.7;;
38220;SDS011;24023;51.280;7.148;2022-12-05T03:25:07;14.5;;;11.7;;
38220;SDS011;24023;51.280;7.148;2022-12-05T03:30:11;15.6;;;12.3;;
38220;SDS011;24023;51.280;7.148;2022-12-05T03:35:08;15.6;;;12.3;;
38220;SDS011;24023;51.280;7.148;2022-12-05T03:40:11;14.1;;;12.1;;
38220;SDS011;24023;51.280;7.148;2022-12-05T03:45:14;16.7;;;12.8;;
38220;SDS011;24023;51.280;7.148;2022-12-05T03:50:09;16.7;;;12.8;;
38220;SDS011;24023;51.280;7.148;2022-12-05T03:55:08;16.7;;;12.8;;
38220;SDS011;24023;51.280;7.148;2022-12-05T04:00:13;17.5;;;12.6;;
38220;SDS011;24023;51.280;7.148;2022-12-05T04:05:08;17.5;;;12.6;;
38220;SDS011;24023;51.280;7.148;2022-12-05T04:10:10;17.3;;;13.1;;
38220;SDS011;24023;51.280;7.148;2022-12-05T04:15:09;17.3;;;13.1;;
38220;SDS011;24023;51.280;7.148;2022-12-05T04:25:41;11.9;;;10.2;;
38220;SDS011;24023;51.280;7.148;2022-12-05T04:30:12;11.9;;;10.2;;
38220;SDS011;24023;51.280;7.148;2022-12-05T04:35:08;11.9;;;10.2;;
38220;SDS011;24023;51.280;7.148;2022-12-05T04:40:09;11.1;;;9.9;;
38220;SDS011;24023;51.280;7.148;2022-12-05T04:45:10;11.1;;;9.9;;
38220;SDS011;24023;51.280;7.148;2022-12-05T04:50:09;10.0;;;9.0;;
38220;SDS011;24023;51.280;7.148;2022-12-05T04:55:07;10.0;;;9.0;;
38220;SDS011;24023;51.280;7.148;2022-12-05T05:00:14;10.0;;;9.0;;
38220;SDS011;24023;51.280;7.148;2022-12-05T05:05:08;9.5;;;8.1;;
38220;SDS011;24023;51.280;7.148;2022-12-05T05:10:08;9.5;;;8.1;;
38220;SDS011;24023;51.280;7.148;2022-12-05T05:15:08;8.0;;;7.2;;
38220;SDS011;24023;51.280;7.148;2022-12-05T05:20:23;8.0;;;7.2;;
38220;SDS011;24023;51.280;7.148;2022-12-05T05:25:09;8.0;;;7.2;;
38220;SDS011;24023;51.280;7.148;2022-12-05T05:30:10;8.7;;;7.8;;
38220;SDS011;24023;51.280;7.148;2022-12-05T05:35:07;8.7;;;7.8;;
38220;SDS011;24023;51.280;7.148;2022-12-05T05:40:09;8.6;;;7.7;;
38220;SDS011;24023;51.280;7.148;2022-12-05T05:45:12;8.6;;;7.7;;
38220;SDS011;24023;51.280;7.148;2022-12-05T05:50:09;8.0;;;7.2;;
38220;SDS011;24023;51.280;7.148;2022-12-05T05:55:07;8.0;;;7.2;;
38220;SDS011;24023;51.280;7.148;2022-12-05T06:00:12;8.0;;;7.2;;
38220;SDS011;24023;51.280;7.148;2022-12-05T06:05:06;8.0;;;7.1;;
38220;SDS011;24023;51.280;7.148;2022-12-05T06:10:08;8.0;;;7.1;;
38220;SDS011;24023;51.280;7.148;2022-12-05T06:15:08;7.6;;;6.8;;
38220;SDS011;24023;51.280;7.148;2022-12-05T06:20:09;7.6;;;6.8;;
38220;SDS011;24023;51.280;7.148;2022-12-05T06:25:07;7.6;;;6.8;;
38220;SDS011;24023;51.280;7.148;2022-12-05T06:30:11;8.3;;;6.8;;
38220;SDS011;24023;51.280;7.148;2022-12-05T06:35:14;8.3;;;6.8;;
38220;SDS011;24023;51.280;7.148;2022-12-05T06:40:09;7.6;;;6.8;;
38220;SDS011;24023;51.280;7.148;2022-12-05T06:45:10;7.6;;;6.8;;
38220;SDS011;24023;51.280;7.148;2022-12-05T06:50:08;7.6;;;6.8;;
38220;SDS011;24023;51.280;7.148;2022-12-05T06:55:07;6.6;;;5.9;;
38220;SDS011;24023;51.280;7.148;2022-12-05T07:05:07;6.1;;;5.4;;
38220;SDS011;24023;51.280;7.148;2022-12-05T07:10:08;6.1;;;5.4;;
38220;SDS011;24023;51.280;7.148;2022-12-05T07:15:08;4.5;;;4.1;;
38220;SDS011;24023;51.280;7.148;2022-12-05T07:20:09;4.5;;;4.1;;
38220;SDS011;24023;51.280;7.148;2022-12-05T07:25:07;4.5;;;4.1;;
38220;SDS011;24023;51.280;7.148;2022-12-05T07:30:11;4.0;;;3.6;;
38220;SDS011;24023;51.280;7.148;2022-12-05T07:35:07;4.0;;;3.6;;
38220;SDS011;24023;51.280;7.148;2022-12-05T07:40:09;3.9;;;3.5;;
38220;SDS011;24023;51.280;7.148;2022-12-05T07:45:11;3.9;;;3.5;;
38220;SDS011;24023;51.280;7.148;2022-12-05T07:50:08;3.9;;;3.5;;
38220;SDS011;24023;51.280;7.148;2022-12-05T07:55:07;3.7;;;3.4;;
38220;SDS011;24023;51.280;7.148;2022-12-05T08:00:33;3.7;;;3.4;;
38220;SDS011;24023;51.280;7.148;2022-12-05T08:05:06;3.4;;;3.1;;
38220;SDS011;24023;51.280;7.148;2022-12-05T08:10:09;3.4;;;3.1;;
38220;SDS011;24023;51.280;7.148;2022-12-05T08:15:08;3.4;;;3.1;;
38220;SDS011;24023;51.280;7.148;2022-12-05T08:20:09;2.8;;;2.6;;
38220;SDS011;24023;51.280;7.148;2022-12-05T08:25:07;2.8;;;2.6;;
38220;SDS011;24023;51.280;7.148;2022-12-05T08:30:10;3.3;;;2.9;;
38220;SDS011;24023;51.280;7.148;2022-12-05T08:35:07;3.3;;;2.9;;
38220;SDS011;24023;51.280;7.148;2022-12-05T08:40:08;3.9;;;3.1;;
38220;SDS011;24023;51.280;7.148;2022-12-05T08:45:10;3.9;;;3.1;;
38220;SDS011;24023;51.280;7.148;2022-12-05T08:50:08;3.9;;;3.1;;
38220;SDS011;24023;51.280;7.148;2022-12-05T08:55:07;5.4;;;3.3;;
38220;SDS011;24023;51.280;7.148;2022-12-05T09:00:12;5.4;;;3.3;;
38220;SDS011;24023;51.280;7.148;2022-12-05T09:05:08;5.4;;;3.3;;
38220;SDS011;24023;51.280;7.148;2022-12-05T09:10:09;4.2;;;3.5;;
38220;SDS011;24023;51.280;7.148;2022-12-05T09:15:09;4.2;;;3.5;;
38220;SDS011;24023;51.280;7.148;2022-12-05T09:20:09;4.6;;;3.7;;
38220;SDS011;24023;51.280;7.148;2022-12-05T09:25:07;4.6;;;3.7;;
38220;SDS011;24023;51.280;7.148;2022-12-05T09:30:10;4.6;;;3.7;;
38220;SDS011;24023;51.280;7.148;2022-12-05T09:35:07;4.2;;;3.6;;
38220;SDS011;24023;51.280;7.148;2022-12-05T09:40:13;4.2;;;3.6;;
38220;SDS011;24023;51.280;7.148;2022-12-05T09:45:15;5.9;;;4.1;;
38220;SDS011;24023;51.280;7.148;2022-12-05T09:50:11;5.9;;;4.1;;
38220;SDS011;24023;51.280;7.148;2022-12-05T09:55:09;4.1;;;3.7;;
38220;SDS011;24023;51.280;7.148;2022-12-05T10:00:12;4.1;;;3.7;;
38220;SDS011;24023;51.280;7.148;2022-12-05T10:05:09;4.1;;;3.7;;
38220;SDS011;24023;51.280;7.148;2022-12-05T10:10:16;4.3;;;3.9;;
38220;SDS011;24023;51.280;7.148;2022-12-05T10:15:10;4.3;;;3.9;;
38220;SDS011;24023;51.280;7.148;2022-12-05T10:20:09;4.3;;;3.7;;
38220;SDS011;24023;51.280;7.148;2022-12-05T10:25:08;4.3;;;3.7;;
38220;SDS011;24023;51.280;7.148;2022-12-05T10:30:12;4.3;;;3.7;;
38220;SDS011;24023;51.280;7.148;2022-12-05T10:35:13;7.5;;;5.9;;
38220;SDS011;24023;51.280;7.148;2022-12-05T10:40:10;7.5;;;5.9;;
38220;SDS011;24023;51.280;7.148;2022-12-05T10:45:13;7.5;;;5.9;;
38220;SDS011;24023;51.280;7.148;2022-12-05T10:50:16;6.0;;;5.4;;
38220;SDS011;24023;51.280;7.148;2022-12-05T10:55:12;6.0;;;5.4;;
38220;SDS011;24023;51.280;7.148;2022-12-05T11:00:16;5.1;;;4.3;;
38220;SDS011;24023;51.280;7.148;2022-12-05T11:05:07;5.1;;;4.3;;
38220;SDS011;24023;51.280;7.148;2022-12-05T11:10:17;5.1;;;4.3;;
38220;SDS011;24023;51.280;7.148;2022-12-05T11:15:18;5.0;;;4.6;;
38220;SDS011;24023;51.280;7.148;2022-12-05T11:20:31;5.0;;;4.6;;
38220;SDS011;24023;51.280;7.148;2022-12-05T11:25:22;4.2;;;3.9;;
38220;SDS011;24023;51.280;7.148;2022-12-05T11:30:15;4.2;;;3.9;;
38220;SDS011;24023;51.280;7.148;2022-12-05T11:35:08;3.6;;;3.3;;
38220;SDS011;24023;51.280;7.148;2022-12-05T11:40:11;3.6;;;3.3;;
38220;SDS011;24023;51.280;7.148;2022-12-05T11:45:16;3.6;;;3.3;;
38220;SDS011;24023;51.280;7.148;2022-12-05T11:50:15;3.7;;;3.4;;
38220;SDS011;24023;51.280;7.148;2022-12-05T11:55:10;3.7;;;3.4;;
38220;SDS011;24023;51.280;7.148;2022-12-05T12:00:15;3.3;;;3.1;;
38220;SDS011;24023;51.280;7.148;2022-12-05T12:05:08;5.2;;;4.8;;
38220;SDS011;24023;51.280;7.148;2022-12-05T12:10:12;5.2;;;4.8;;
38220;SDS011;24023;51.280;7.148;2022-12-05T12:15:18;5.2;;;4.8;;
38220;SDS011;24023;51.280;7.148;2022-12-05T12:20:19;6.0;;;5.4;;
38220;SDS011;24023;51.280;7.148;2022-12-05T12:25:12;6.0;;;5.4;;
38220;SDS011;24023;51.280;7.148;2022-12-05T12:30:11;5.9;;;5.2;;
38220;SDS011;24023;51.280;7.148;2022-12-05T12:35:13;5.9;;;5.2;;
38220;SDS011;24023;51.280;7.148;2022-12-05T12:40:12;5.9;;;5.2;;
38220;SDS011;24023;51.280;7.148;2022-12-05T12:45:16;6.1;;;5.5;;
38220;SDS011;24023;51.280;7.148;2022-12-05T12:50:10;6.1;;;5.5;;
38220;SDS011;24023;51.280;7.148;2022-12-05T12:55:10;6.3;;;5.7;;
38220;SDS011;24023;51.280;7.148;2022-12-05T13:00:16;6.3;;;5.7;;
38220;SDS011;24023;51.280;7.148;2022-12-05T13:05:11;5.5;;;5.0;;
38220;SDS011;24023;51.280;7.148;2022-12-05T13:10:11;5.5;;;5.0;;
38220;SDS011;24023;51.280;7.148;2022-12-05T13:15:10;5.5;;;5.0;;
38220;SDS011;24023;51.280;7.148;2022-12-05T13:20:12;4.9;;;4.5;;
38220;SDS011;24023;51.280;7.148;2022-12-05T13:25:10;4.9;;;4.5;;
38220;SDS011;24023;51.280;7.148;2022-12-05T13:30:14;4.7;;;4.3;;
38220;SDS011;24023;51.280;7.148;2022-12-05T13:35:07;4.7;;;4.3;;
38220;SDS011;24023;51.280;7.148;2022-12-05T13:45:14;5.1;;;4.7;;
38220;SDS011;24023;51.280;7.148;2022-12-05T13:50:11;5.1;;;4.7;;
38220;SDS011;24023;51.280;7.148;2022-12-05T13:55:13;4.8;;;4.4;;
38220;SDS011;24023;51.280;7.148;2022-12-05T14:00:28;4.8;;;4.4;;
38220;SDS011;24023;51.280;7.148;2022-12-05T14:05:22;4.8;;;4.4;;
38220;SDS011;24023;51.280;7.148;2022-12-05T14:10:09;4.9;;;4.5;;
38220;SDS011;24023;51.280;7.148;2022-12-05T14:15:22;4.9;;;4.5;;
38220;SDS011;24023;51.280;7.148;2022-12-05T14:20:17;4.7;;;4.3;;
38220;SDS011;24023;51.280;7.148;2022-12-05T14:25:09;4.7;;;4.3;;
38220;SDS011;24023;51.280;7.148;2022-12-05T14:30:16;4.7;;;4.3;;
38220;SDS011;24023;51.280;7.148;2022-12-05T14:35:10;5.0;;;4.3;;
38220;SDS011;24023;51.280;7.148;2022-12-05T14:40:16;5.0;;;4.3;;
38220;SDS011;24023;51.280;7.148;2022-12-05T14:45:43;4.6;;;4.0;;
38220;SDS011;24023;51.280;7.148;2022-12-05T14:50:20;4.6;;;4.0;;
38220;SDS011;24023;51.280;7.148;2022-12-05T14:55:10;3.9;;;3.5;;
38220;SDS011;24023;51.280;7.148;2022-12-05T15:00:16;3.9;;;3.5;;
38220;SDS011;24023;51.280;7.148;2022-12-05T15:05:13;5.6;;;5.1;;
38220;SDS011;24023;51.280;7.148;2022-12-05T15:10:13;5.6;;;5.1;;
38220;SDS011;24023;51.280;7.148;2022-12-05T15:15:12;3.6;;;3.3;;
38220;SDS011;24023;51.280;7.148;2022-12-05T15:20:11;3.6;;;3.3;;
38220;SDS011;24023;51.280;7.148;2022-12-05T15:25:23;3.6;;;3.3;;
38220;SDS011;24023;51.280;7.148;2022-12-05T15:30:13;3.8;;;3.0;;
38220;SDS011;24023;51.280;7.148;2022-12-05T15:35:08;9.9;;;8.9;;
38220;SDS011;24023;51.280;7.148;2022-12-05T15:40:10;9.9;;;8.9;;
38220;SDS011;24023;51.280;7.148;2022-12-05T15:45:16;3.8;;;3.1;;
38220;SDS011;24023;51.280;7.148;2022-12-05T15:50:11;3.8;;;3.1;;
38220;SDS011;24023;51.280;7.148;2022-12-05T15:55:09;3.8;;;3.1;;
38220;SDS011;24023;51.280;7.148;2022-12-05T16:00:13;3.1;;;2.8;;
38220;SDS011;24023;51.280;7.148;2022-12-05T16:05:15;3.1;;;2.8;;
38220;SDS011;24023;51.280;7.148;2022-12-05T16:10:11;2.2;;;2.0;;
38220;SDS011;24023;51.280;7.148;2022-12-05T16:15:10;2.2;;;2.0;;
38220;SDS011;24023;51.280;7.148;2022-12-05T16:20:09;2.2;;;2.0;;
38220;SDS011;24023;51.280;7.148;2022-12-05T16:25:11;2.0;;;1.8;;
38220;SDS011;24023;51.280;7.148;2022-12-05T16:30:16;2.0;;;1.8;;
38220;SDS011;24023;51.280;7.148;2022-12-05T16:35:22;1.7;;;1.6;;
38220;SDS011;24023;51.280;7.148;2022-12-05T16:40:18;1.7;;;1.6;;
38220;SDS011;24023;51.280;7.148;2022-12-05T16:45:10;3.6;;;3.3;;
38220;SDS011;24023;51.280;7.148;2022-12-05T16:50:21;3.6;;;3.3;;
38220;SDS011;24023;51.280;7.148;2022-12-05T16:55:09;3.6;;;3.3;;
38220;SDS011;24023;51.280;7.148;2022-12-05T17:00:12;3.6;;;2.9;;
38220;SDS011;24023;51.280;7.148;2022-12-05T17:05:11;37.1;;;24.5;;
38220;SDS011;24023;51.280;7.148;2022-12-05T17:10:08;37.1;;;24.5;;
38220;SDS011;24023;51.280;7.148;2022-12-05T17:15:08;5.7;;;4.5;;
38220;SDS011;24023;51.280;7.148;2022-12-05T17:20:08;5.7;;;4.5;;
38220;SDS011;24023;51.280;7.148;2022-12-05T17:25:12;2.5;;;2.3;;
38220;SDS011;24023;51.280;7.148;2022-12-05T17:30:15;2.5;;;2.3;;
38220;SDS011;24023;51.280;7.148;2022-12-05T17:35:11;2.5;;;2.3;;
38220;SDS011;24023;51.280;7.148;2022-12-05T17:40:09;3.0;;;2.5;;
38220;SDS011;24023;51.280;7.148;2022-12-05T17:45:12;3.0;;;2.5;;
38220;SDS011;24023;51.280;7.148;2022-12-05T17:50:10;2.1;;;1.6;;
38220;SDS011;24023;51.280;7.148;2022-12-05T17:55:10;2.1;;;1.6;;
38220;SDS011;24023;51.280;7.148;2022-12-05T18:00:13;3.1;;;2.7;;
38220;SDS011;24023;51.280;7.148;2022-12-05T18:05:09;3.1;;;2.7;;
38220;SDS011;24023;51.280;7.148;2022-12-05T18:10:10;3.1;;;2.7;;
38220;SDS011;24023;51.280;7.148;2022-12-05T18:15:09;2.2;;;2.0;;
38220;SDS011;24023;51.280;7.148;2022-12-05T18:20:12;2.2;;;2.0;;
38220;SDS011;24023;51.280;7.148;2022-12-05T18:25:07;4.9;;;4.4;;
38220;SDS011;24023;51.280;7.148;2022-12-05T18:30:12;4.9;;;4.4;;
38220;SDS011;24023;51.280;7.148;2022-12-05T18:35:08;10.2;;;8.1;;
38220;SDS011;24023;51.280;7.148;2022-12-05T18:40:09;10.2;;;8.1;;
38220;SDS011;24023;51.280;7.148;2022-12-05T18:45:10;6.0;;;5.2;;
38220;SDS011;24023;51.280;7.148;2022-12-05T18:50:09;6.0;;;5.2;;
38220;SDS011;24023;51.280;7.148;2022-12-05T18:55:08;8.0;;;5.9;;
38220;SDS011;24023;51.280;7.148;2022-12-05T19:00:13;8.0;;;5.9;;
38220;SDS011;24023;51.280;7.148;2022-12-05T19:05:07;8.0;;;5.9;;
38220;SDS011;24023;51.280;7.148;2022-12-05T19:10:08;9.3;;;6.0;;
38220;SDS011;24023;51.280;7.148;2022-12-05T19:15:09;5.8;;;4.6;;
38220;SDS011;24023;51.280;7.148;2022-12-05T19:20:09;5.8;;;4.6;;
38220;SDS011;24023;51.280;7.148;2022-12-05T19:25:07;5.8;;;4.6;;
38220;SDS011;24023;51.280;7.148;2022-12-05T19:30:10;4.3;;;3.4;;
38220;SDS011;24023;51.280;7.148;2022-12-05T19:35:06;4.3;;;3.4;;
38220;SDS011;24023;51.280;7.148;2022-12-05T19:40:08;4.1;;;3.0;;
38220;SDS011;24023;51.280;7.148;2022-12-05T19:45:12;4.1;;;3.0;;
38220;SDS011;24023;51.280;7.148;2022-12-05T19:50:08;3.2;;;2.6;;
38220;SDS011;24023;51.280;7.148;2022-12-05T19:55:07;5.0;;;4.5;;
38220;SDS011;24023;51.280;7.148;2022-12-05T20:00:16;5.0;;;4.5;;
38220;SDS011;24023;51.280;7.148;2022-12-05T20:05:07;3.1;;;2.6;;
38220;SDS011;24023;51.280;7.148;2022-12-05T20:10:08;3.1;;;2.6;;
38220;SDS011;24023;51.280;7.148;2022-12-05T20:15:09;3.1;;;2.6;;
38220;SDS011;24023;51.280;7.148;2022-12-05T20:20:09;3.3;;;3.0;;
38220;SDS011;24023;51.280;7.148;2022-12-05T20:25:07;3.3;;;3.0;;
38220;SDS011;24023;51.280;7.148;2022-12-05T20:30:10;2.9;;;2.5;;
38220;SDS011;24023;51.280;7.148;2022-12-05T20:35:07;2.9;;;2.5;;
38220;SDS011;24023;51.280;7.148;2022-12-05T20:40:08;2.9;;;2.5;;
38220;SDS011;24023;51.280;7.148;2022-12-05T20:45:10;4.8;;;4.3;;
38220;SDS011;24023;51.280;7.148;2022-12-05T20:50:09;4.8;;;4.3;;
38220;SDS011;24023;51.280;7.148;2022-12-05T20:55:07;4.8;;;4.3;;
38220;SDS011;24023;51.280;7.148;2022-12-05T21:00:12;4.6;;;4.1;;
38220;SDS011;24023;51.280;7.148;2022-12-05T21:05:07;4.6;;;4.1;;
38220;SDS011;24023;51.280;7.148;2022-12-05T21:10:09;3.9;;;3.5;;
38220;SDS011;24023;51.280;7.148;2022-12-05T21:15:08;3.9;;;3.5;;
38220;SDS011;24023;51.280;7.148;2022-12-05T21:20:09;5.1;;;3.7;;
38220;SDS011;24023;51.280;7.148;2022-12-05T21:25:07;10.9;;;4.9;;
38220;SDS011;24023;51.280;7.148;2022-12-05T21:30:10;10.9;;;4.9;;
38220;SDS011;24023;51.280;7.148;2022-12-05T21:35:07;6.0;;;3.8;;
38220;SDS011;24023;51.280;7.148;2022-12-05T21:40:08;6.0;;;3.8;;
38220;SDS011;24023;51.280;7.148;2022-12-05T21:45:12;8.3;;;5.2;;
38220;SDS011;24023;51.280;7.148;2022-12-05T21:50:08;8.3;;;5.2;;
38220;SDS011;24023;51.280;7.148;2022-12-05T21:55:07;8.3;;;5.2;;
38220;SDS011;24023;51.280;7.148;2022-12-05T22:00:12;7.2;;;4.6;;
38220;SDS011;24023;51.280;7.148;2022-12-05T22:05:07;5.1;;;4.5;;
38220;SDS011;24023;51.280;7.148;2022-12-05T22:10:09;5.1;;;4.5;;
38220;SDS011;24023;51.280;7.148;2022-12-05T22:15:08;8.7;;;3.8;;
38220;SDS011;24023;51.280;7.148;2022-12-05T22:20:08;8.7;;;3.8;;
38220;SDS011;24023;51.280;7.148;2022-12-05T22:25:07;12.1;;;4.3;;
38220;SDS011;24023;51.280;7.148;2022-12-05T22:30:10;12.1;;;4.3;;
38220;SDS011;24023;51.280;7.148;2022-12-05T22:35:07;12.1;;;4.3;;
38220;SDS011;24023;51.280;7.148;2022-12-05T22:40:08;10.8;;;4.5;;
38220;SDS011;24023;51.280;7.148;2022-12-05T22:45:10;5.0;;;4.5;;
38220;SDS011;24023;51.280;7.148;2022-12-05T22:50:09;5.0;;;4.5;;
38220;SDS011;24023;51.280;7.148;2022-12-05T22:55:07;5.0;;;4.5;;
38220;SDS011;24023;51.280;7.148;2022-12-05T23:00:20;5.3;;;4.6;;
38220;SDS011;24023;51.280;7.148;2022-12-05T23:05:08;5.3;;;4.6;;
38220;SDS011;24023;51.280;7.148;2022-12-05T23:10:09;4.7;;;4.1;;
38220;SDS011;24023;51.280;7.148;2022-12-05T23:15:09;4.7;;;4.1;;
38220;SDS011;24023;51.280;7.148;2022-12-05T23:20:09;5.0;;;4.4;;
38220;SDS011;24023;51.280;7.148;2022-12-05T23:25:07;5.0;;;4.4;;
38220;SDS011;24023;51.280;7.148;2022-12-05T23:30:10;5.0;;;4.4;;
38220;SDS011;24023;51.280;7.148;2022-12-05T23:35:08;5.9;;;4.7;;
38220;SDS011;24023;51.280;7.148;2022-12-05T23:40:08;5.9;;;4.7;;
38220;SDS011;24023;51.280;7.148;2022-12-05T23:45:12;5.8;;;4.9;;
38220;SDS011;24023;51.280;7.148;2022-12-05T23:50:08;5.8;;;4.9;;
38220;SDS011;24023;51.280;7.148;2022-12-05T23:55:07;9.8;;;5.7;;
